Pagrindinis puslapis
METAR-TAF:

METAR-TAF

Oro uostai :

Qaisumah, Saudo Arabija

platuma: 28-19N, ilguma: 046-07E, Aukštis: 358 m

Dabartinis oras

Ataskaita buvo paskelbta 47 minutes, ne 20:00 UTC
Vėjas 10 kt iš Šiaurės/Šiaurės Vakarų
Temperatūra 32°C
Drėgmė 24%
Slėgis 1007 hPa
Matomumas 10 km arba daugiau
nėra debesų žemiau 1500 m ir nėra kamuolinių lietaus debesų

METAR: OEPA 172000Z 33010KT CAVOK 32/09 Q1007 NOSIG

Laikas: 23:47 (20:47 UTC)

Prognozė

Ataskaita buvo paskelbta 9 valandos ir 47 minutes, ne 11:00 UTC
Prognozė galioja nuo 17 metu 12 UTC su 18 metu 18 UTC
Vėjas 22 kt iš Šiaurės
Matomumas: 4000 m
Dulkes pustymas
Laikinai
nuo 17 metu 12 UTC su 17 metu 16 UTC
Matomumas: 1000 m
Tapsmas
nuo 17 metu 18 UTC su 17 metu 20 UTC
Vėjas 10 kt iš Šiaurės Vakarų
Matomumas: 6000 m
Tapsmas
nuo 18 metu 06 UTC su 18 metu 08 UTC
Vėjas 22 kt iš Šiaurės/Šiaurės Vakarų

TAF: OEPA 171100Z 1712/1818 35022KT 4000 BLDU NSC TEMPO 1712/1716 1000 BECMG 1718/1720 32010KT 6000 NSC BECMG 1806/1808 34022KT

Orai ataskaitas ir orų prognozės (METAR, TAF).

turimą stotys yra geltonos ir raudonos taškus žemėlapyje.

Perkelti pele per norėdami pamatyti stoties vardą.

Tada spustelėkite, norėdami matyti oro stebėjimo ir prognozės.

Norėdami pakeisti žemėlapį: spustelėkite ant žalios mygtukų su juodo kryžiaus žemyn,; žalią mygtuką su brūkšneliu, jei norite nutolinti; arba žalių rodyklių gretimoms žemėlapius.


METAR-TAF: